Time;durP1;ratioP1;P1;durP2;ratioP2;P2;SDS_P1;SDS_P2;PMS_P1;PMS_P2;Temp;Humidity;BMP_temperature;BMP_pressure;BME280_temperature;BME280_humidity;BME280_pressure;Samples;Min_cycle;Max_cycle;Signal;HPM_P1;HPM_P2
2022/04/26 03:37:45;;;;;;;1.83;0.57;;;;;;;;;;5094771;28;20063;-74
2022/04/26 03:40:12;;;;;;;1.50;0.43;;;;;;;;;;5093386;28;20055;-73
2022/04/26 03:42:39;;;;;;;2.35;0.52;;;;;;;;;;5093385;28;20476;-74
2022/04/26 03:45:06;;;;;;;2.08;0.70;;;;;;;;;;5093237;28;20031;-74
2022/04/26 03:47:34;;;;;;;1.25;0.50;;;;;;;;;;5092930;28;20404;-75
2022/04/26 03:50:01;;;;;;;1.88;0.60;;;;;;;;;;5094530;28;20403;-75
2022/04/26 03:52:28;;;;;;;1.80;0.65;;;;;;;;;;5094504;28;20085;-74
2022/04/26 03:54:55;;;;;;;1.48;0.77;;;;;;;;;;5093036;28;20069;-74
2022/04/26 03:57:22;;;;;;;2.13;0.68;;;;;;;;;;5093061;28;20055;-74
2022/04/26 03:59:49;;;;;;;2.58;0.90;;;;;;;;;;5092846;28;20027;-73
2022/04/26 04:02:16;;;;;;;2.05;0.80;;;;;;;;;;5092929;28;20689;-73
2022/04/26 04:04:43;;;;;;;3.13;0.75;;;;;;;;;;5092763;28;20027;-74
2022/04/26 04:07:10;;;;;;;1.92;0.77;;;;;;;;;;5092728;28;20377;-73
2022/04/26 04:09:38;;;;;;;4.35;1.38;;;;;;;;;;5094015;28;20022;-73
2022/04/26 04:12:05;;;;;;;1.95;0.70;;;;;;;;;;5094072;28;20116;-73
2022/04/26 04:14:32;;;;;;;1.92;0.77;;;;;;;;;;5093845;28;20052;-74
2022/04/26 04:16:59;;;;;;;1.92;0.82;;;;;;;;;;5093974;28;20442;-74
2022/04/26 04:19:27;;;;;;;2.60;0.57;;;;;;;;;;5093889;28;20024;-74
2022/04/26 04:21:54;;;;;;;2.53;0.80;;;;;;;;;;5092682;28;20408;-74
2022/04/26 04:24:22;;;;;;;1.45;0.65;;;;;;;;;;5092447;28;20031;-74
2022/04/26 04:26:49;;;;;;;2.05;0.80;;;;;;;;;;5093872;28;20448;-73
2022/04/26 04:29:16;;;;;;;1.77;0.60;;;;;;;;;;5093808;28;20024;-73
2022/04/26 04:31:45;;;;;;;2.20;0.70;;;;;;;;;;5093716;28;20085;-73
2022/04/26 04:34:12;;;;;;;2.80;0.80;;;;;;;;;;5092130;28;20034;-74
2022/04/26 04:36:39;;;;;;;2.42;0.82;;;;;;;;;;5093561;28;20027;-73
2022/04/26 04:39:07;;;;;;;2.97;0.98;;;;;;;;;;5093630;28;20012;-74
2022/04/26 04:41:37;;;;;;;2.67;0.88;;;;;;;;;;5093455;28;20397;-74
2022/04/26 04:44:05;;;;;;;2.45;0.90;;;;;;;;;;5093461;28;20052;-74
2022/04/26 04:46:32;;;;;;;1.60;0.85;;;;;;;;;;5093310;28;20028;-74
2022/04/26 04:48:59;;;;;;;1.33;0.85;;;;;;;;;;5093245;28;20040;-74
2022/04/26 04:51:26;;;;;;;3.00;0.77;;;;;;;;;;5093212;28;20047;-74
2022/04/26 04:53:54;;;;;;;1.00;0.75;;;;;;;;;;5091824;28;20036;-74
2022/04/26 04:56:24;;;;;;;1.73;0.80;;;;;;;;;;5091779;28;20089;-74
2022/04/26 04:58:52;;;;;;;3.53;0.70;;;;;;;;;;5091930;28;20020;-73
2022/04/26 05:01:19;;;;;;;2.65;0.65;;;;;;;;;;5093158;28;20829;-74
2022/04/26 05:03:46;;;;;;;2.72;0.70;;;;;;;;;;5093011;28;20393;-74
2022/04/26 05:06:15;;;;;;;2.55;0.70;;;;;;;;;;5091623;28;20031;-74
2022/04/26 05:08:42;;;;;;;1.65;0.85;;;;;;;;;;5091635;28;20111;-74
2022/04/26 05:11:10;;;;;;;1.67;0.93;;;;;;;;;;5091195;28;20476;-74
2022/04/26 05:13:37;;;;;;;2.40;1.10;;;;;;;;;;5092843;28;20024;-74
2022/04/26 05:16:05;;;;;;;1.13;0.55;;;;;;;;;;5091507;28;20508;-73
2022/04/26 05:18:32;;;;;;;2.45;1.25;;;;;;;;;;5092956;28;20016;-74
2022/04/26 05:20:59;;;;;;;2.47;0.70;;;;;;;;;;5092852;28;20043;-73
2022/04/26 05:26:12;;;;;;;2.10;0.75;;;;;;;;;;5093052;28;20133;-74
2022/04/26 05:28:39;;;;;;;2.55;0.80;;;;;;;;;;5092725;28;20109;-74
2022/04/26 05:31:08;;;;;;;3.08;0.70;;;;;;;;;;5091301;28;20028;-74
2022/04/26 05:33:35;;;;;;;2.15;0.60;;;;;;;;;;5091321;28;20111;-73
2022/04/26 05:36:02;;;;;;;2.53;0.80;;;;;;;;;;5092514;28;20472;-73
2022/04/26 05:38:29;;;;;;;2.83;0.70;;;;;;;;;;5091213;28;20103;-74
2022/04/26 05:40:57;;;;;;;1.92;0.80;;;;;;;;;;5092650;28;20074;-74
2022/04/26 05:43:24;;;;;;;2.05;0.85;;;;;;;;;;5092543;28;20028;-73
2022/04/26 05:45:51;;;;;;;3.33;0.80;;;;;;;;;;5092465;28;20024;-74
2022/04/26 05:48:18;;;;;;;3.70;1.05;;;;;;;;;;5092162;28;20051;-74
2022/04/26 05:50:46;;;;;;;2.10;1.00;;;;;;;;;;5091121;28;20434;-74
2022/04/26 05:53:13;;;;;;;2.33;0.95;;;;;;;;;;5092239;28;20028;-74
2022/04/26 05:55:40;;;;;;;2.80;1.02;;;;;;;;;;5090887;28;20035;-74
2022/04/26 05:58:07;;;;;;;1.52;0.82;;;;;;;;;;5092140;28;20025;-72
2022/04/26 06:00:34;;;;;;;3.83;1.13;;;;;;;;;;5091014;28;20028;-73
2022/04/26 06:03:02;;;;;;;2.95;0.80;;;;;;;;;;5092157;28;20464;-74
2022/04/26 06:05:29;;;;;;;3.67;0.90;;;;;;;;;;5092106;28;20016;-73
2022/04/26 06:07:57;;;;;;;2.08;1.10;;;;;;;;;;5090770;28;20117;-73
2022/04/26 06:10:24;;;;;;;2.42;0.90;;;;;;;;;;5092111;28;20062;-72
2022/04/26 06:12:52;;;;;;;4.18;1.10;;;;;;;;;;5090574;28;20074;-73
2022/04/26 06:15:21;;;;;;;3.80;0.80;;;;;;;;;;5092084;28;20024;-70
2022/04/26 06:17:48;;;;;;;2.40;1.05;;;;;;;;;;5090512;28;20111;-72
2022/04/26 06:20:16;;;;;;;3.67;1.00;;;;;;;;;;5091985;28;20031;-72
2022/04/26 06:22:44;;;;;;;3.45;1.08;;;;;;;;;;5094504;28;20016;-73
2022/04/26 06:25:11;;;;;;;3.38;1.23;;;;;;;;;;5094594;28;20032;-70
2022/04/26 06:27:38;;;;;;;2.33;1.10;;;;;;;;;;5095866;28;20434;-73
2022/04/26 06:30:05;;;;;;;2.05;1.00;;;;;;;;;;5095862;28;20032;-71
2022/04/26 06:32:32;;;;;;;2.47;1.10;;;;;;;;;;5094268;28;20024;-70
2022/04/26 06:35:00;;;;;;;4.78;1.35;;;;;;;;;;5095766;28;20020;-70
2022/04/26 06:37:27;;;;;;;2.42;1.15;;;;;;;;;;5095514;28;20028;-70
2022/04/26 06:39:55;;;;;;;3.15;1.20;;;;;;;;;;5094263;28;20028;-70
2022/04/26 06:42:22;;;;;;;2.70;1.35;;;;;;;;;;5095480;28;20020;-70
2022/04/26 06:44:49;;;;;;;3.88;1.70;;;;;;;;;;5095889;28;20077;-70
2022/04/26 06:47:16;;;;;;;4.00;1.45;;;;;;;;;;5094192;28;20138;-70
2022/04/26 06:49:43;;;;;;;3.70;1.30;;;;;;;;;;5095251;28;20103;-70
2022/04/26 06:52:11;;;;;;;2.45;1.00;;;;;;;;;;5095503;28;20036;-72
2022/04/26 06:54:38;;;;;;;2.35;1.10;;;;;;;;;;5095437;28;20078;-71
2022/04/26 06:57:05;;;;;;;3.55;1.30;;;;;;;;;;5095479;28;20024;-72
2022/04/26 06:59:32;;;;;;;4.07;1.60;;;;;;;;;;5093907;28;20388;-72
2022/04/26 07:01:59;;;;;;;3.05;1.30;;;;;;;;;;5095142;28;20042;-72
2022/04/26 07:04:27;;;;;;;4.82;1.50;;;;;;;;;;5095068;28;20020;-73
2022/04/26 07:06:54;;;;;;;1.80;1.20;;;;;;;;;;5093694;28;20053;-71
2022/04/26 07:09:22;;;;;;;2.10;1.27;;;;;;;;;;5094961;28;20062;-71
2022/04/26 07:11:49;;;;;;;2.60;1.30;;;;;;;;;;5094947;28;20028;-73
2022/04/26 07:14:16;;;;;;;5.13;1.25;;;;;;;;;;5094851;28;20024;-72
2022/04/26 07:16:48;;;;;;;3.13;1.30;;;;;;;;;;5094970;28;20107;-72
2022/04/26 07:19:15;;;;;;;2.90;0.95;;;;;;;;;;5094706;28;20048;-73
2022/04/26 07:21:45;;;;;;;2.80;1.13;;;;;;;;;;5094759;28;20017;-73
2022/04/26 07:24:12;;;;;;;3.10;1.15;;;;;;;;;;5093405;28;20515;-72
2022/04/26 07:26:39;;;;;;;3.63;0.98;;;;;;;;;;5094916;28;20047;-73
2022/04/26 07:29:08;;;;;;;2.45;0.90;;;;;;;;;;5093543;28;20031;-72
2022/04/26 07:31:37;;;;;;;2.15;0.90;;;;;;;;;;5093405;28;20105;-72
2022/04/26 07:34:22;;;;;;;3.13;1.17;;;;;;;;;;5094257;28;20020;-72
2022/04/26 07:36:52;;;;;;;6.05;1.83;;;;;;;;;;5093486;28;20400;-73
2022/04/26 07:39:20;;;;;;;4.32;2.00;;;;;;;;;;5093202;28;20080;-72
2022/04/26 07:41:48;;;;;;;4.65;2.17;;;;;;;;;;5094690;28;20016;-72
2022/04/26 07:44:16;;;;;;;4.32;1.85;;;;;;;;;;5094694;28;20028;-72
2022/04/26 07:46:47;;;;;;;7.18;2.90;;;;;;;;;;5094541;28;20028;-72
2022/04/26 07:49:14;;;;;;;4.78;1.90;;;;;;;;;;5093015;28;20068;-72
2022/04/26 07:51:42;;;;;;;4.72;1.40;;;;;;;;;;5094470;28;20035;-72
2022/04/26 07:54:10;;;;;;;3.17;1.40;;;;;;;;;;5093102;28;20024;-73
2022/04/26 07:56:37;;;;;;;1.38;1.00;;;;;;;;;;5094463;28;20044;-70
2022/04/26 07:59:04;;;;;;;3.17;1.48;;;;;;;;;;5094345;28;20012;-71
2022/04/26 08:01:32;;;;;;;3.65;1.13;;;;;;;;;;5094358;28;20073;-72
2022/04/26 08:03:59;;;;;;;2.83;1.17;;;;;;;;;;5094214;28;20030;-70
2022/04/26 08:06:26;;;;;;;4.70;1.30;;;;;;;;;;5094206;28;20362;-70
2022/04/26 08:08:58;;;;;;;4.00;1.02;;;;;;;;;;5094025;28;20020;-70
2022/04/26 08:11:28;;;;;;;3.42;1.10;;;;;;;;;;5094108;28;20031;-70
2022/04/26 08:13:56;;;;;;;6.28;1.17;;;;;;;;;;5093891;28;20027;-71
2022/04/26 08:16:23;;;;;;;4.13;0.95;;;;;;;;;;5092388;28;20047;-71
2022/04/26 08:18:50;;;;;;;3.55;0.70;;;;;;;;;;5093960;28;20095;-72
2022/04/26 08:21:18;;;;;;;5.65;1.10;;;;;;;;;;5092663;28;20477;-71
2022/04/26 08:29:17;;;;;;;3.95;0.68;;;;;;;;;;5094070;28;20042;-71
2022/04/26 08:31:44;;;;;;;4.40;0.80;;;;;;;;;;5093799;28;20028;-72
2022/04/26 08:34:12;;;;;;;4.70;0.90;;;;;;;;;;5092243;28;20035;-71
2022/04/26 08:36:39;;;;;;;2.40;0.80;;;;;;;;;;5093635;28;20092;-73
2022/04/26 08:39:07;;;;;;;2.03;0.57;;;;;;;;;;5092200;28;20042;-72
2022/04/26 08:41:34;;;;;;;2.42;0.60;;;;;;;;;;5092252;28;20051;-72
2022/04/26 08:44:01;;;;;;;2.60;0.60;;;;;;;;;;5091474;28;20035;-72
2022/04/26 08:50:59;;;;;;;4.07;1.17;;;;;;;;;;5093237;28;20028;-72
2022/04/26 08:52:02;;;;;;;3.83;0.90;;;;;;;;;;5093233;28;20535;-73
2022/04/26 08:54:30;;;;;;;3.78;0.95;;;;;;;;;;5092944;28;20111;-73
2022/04/26 08:56:57;;;;;;;4.85;0.98;;;;;;;;;;5091795;28;20028;-71
2022/04/26 08:59:25;;;;;;;3.63;0.90;;;;;;;;;;5092869;28;20023;-71
2022/04/26 09:02:12;;;;;;;3.95;1.00;;;;;;;;;;5092905;28;20020;-71
2022/04/26 09:04:39;;;;;;;2.63;0.68;;;;;;;;;;5091405;28;20035;-72
2022/04/26 09:07:11;;;;;;;1.35;0.52;;;;;;;;;;5091711;28;20027;-71
2022/04/26 09:09:41;;;;;;;3.70;0.70;;;;;;;;;;5092934;28;20020;-71
2022/04/26 09:12:12;;;;;;;3.60;0.75;;;;;;;;;;5092768;28;20412;-71
2022/04/26 09:14:50;;;;;;;2.53;0.52;;;;;;;;;;5091474;28;20039;-72
2022/04/26 09:17:17;;;;;;;2.20;0.60;;;;;;;;;;5092690;28;20028;-69
2022/04/26 09:19:47;;;;;;;2.80;0.50;;;;;;;;;;5092795;28;20020;-71
2022/04/26 09:22:21;;;;;;;1.67;0.50;;;;;;;;;;5091511;28;20069;-72
2022/04/26 09:24:55;;;;;;;2.78;0.77;;;;;;;;;;5092795;28;20024;-70
2022/04/26 09:27:23;;;;;;;1.23;0.73;;;;;;;;;;5091432;28;20024;-71
2022/04/26 09:29:50;;;;;;;1.35;0.70;;;;;;;;;;5091380;28;20530;-70
2022/04/26 09:32:18;;;;;;;1.58;0.60;;;;;;;;;;5092678;28;20103;-71
2022/04/26 09:34:45;;;;;;;3.65;0.60;;;;;;;;;;5092600;28;20497;-72
2022/04/26 09:37:12;;;;;;;2.15;0.90;;;;;;;;;;5092636;28;20028;-71
2022/04/26 09:39:41;;;;;;;3.95;0.93;;;;;;;;;;5091164;28;20058;-71
2022/04/26 09:42:09;;;;;;;3.47;1.00;;;;;;;;;;5092506;28;20380;-71
2022/04/26 09:44:40;;;;;;;2.35;0.60;;;;;;;;;;5092492;28;20026;-71
2022/04/26 09:47:08;;;;;;;2.83;0.88;;;;;;;;;;5092505;28;20051;-71
2022/04/26 09:49:38;;;;;;;2.35;0.70;;;;;;;;;;5092233;28;20040;-70
2022/04/26 09:52:10;;;;;;;1.90;0.63;;;;;;;;;;5091080;28;20506;-70
2022/04/26 09:54:38;;;;;;;2.05;0.70;;;;;;;;;;5092359;28;20020;-70
2022/04/26 09:57:09;;;;;;;3.22;0.80;;;;;;;;;;5096723;28;20020;-71
2022/04/26 09:59:38;;;;;;;3.10;0.77;;;;;;;;;;5099226;28;20031;-71
2022/04/26 10:02:10;;;;;;;0.73;0.60;;;;;;;;;;5099117;28;20070;-72
2022/04/26 10:04:38;;;;;;;1.73;0.75;;;;;;;;;;5097628;28;20024;-71
2022/04/26 10:07:07;;;;;;;2.45;0.80;;;;;;;;;;5097690;28;20024;-71
2022/04/26 10:09:35;;;;;;;1.73;0.80;;;;;;;;;;5099075;28;20366;-71
2022/04/26 10:12:03;;;;;;;2.13;0.70;;;;;;;;;;5097766;28;20492;-71
2022/04/26 10:14:31;;;;;;;4.47;1.10;;;;;;;;;;5098971;28;20048;-71
2022/04/26 10:16:58;;;;;;;2.80;0.90;;;;;;;;;;5097689;28;20024;-72
2022/04/26 10:19:40;;;;;;;2.08;0.50;;;;;;;;;;5097690;28;20110;-72
2022/04/26 10:22:11;;;;;;;1.17;1.00;;;;;;;;;;5098971;28;20016;-71
2022/04/26 10:24:40;;;;;;;1.77;0.80;;;;;;;;;;5098992;28;20020;-72
2022/04/26 10:27:18;;;;;;;1.30;0.75;;;;;;;;;;5097621;28;20024;-71
2022/04/26 10:29:45;;;;;;;4.07;0.68;;;;;;;;;;5097696;28;20053;-72
2022/04/26 10:32:28;;;;;;;2.08;0.70;;;;;;;;;;5097531;28;20024;-73
2022/04/26 10:34:55;;;;;;;2.95;0.60;;;;;;;;;;5097558;28;20483;-72
2022/04/26 10:37:23;;;;;;;2.25;0.60;;;;;;;;;;5097490;28;20396;-73
2022/04/26 10:40:00;;;;;;;1.05;0.40;;;;;;;;;;5098697;28;20027;-73
2022/04/26 10:42:29;;;;;;;2.22;0.55;;;;;;;;;;5098691;28;20020;-73
2022/04/26 10:45:12;;;;;;;2.50;0.50;;;;;;;;;;5097475;28;20484;-71
2022/04/26 10:47:40;;;;;;;3.75;0.60;;;;;;;;;;5098607;28;20023;-73
2022/04/26 10:50:08;;;;;;;2.13;0.60;;;;;;;;;;5098805;28;20102;-74
2022/04/26 10:52:37;;;;;;;3.42;0.63;;;;;;;;;;5097430;28;20035;-72
2022/04/26 10:55:14;;;;;;;1.23;0.60;;;;;;;;;;5097348;28;20512;-73
2022/04/26 10:57:43;;;;;;;4.15;1.17;;;;;;;;;;5097352;28;20016;-73
2022/04/26 11:00:14;;;;;;;4.95;0.93;;;;;;;;;;5098504;28;20031;-74
2022/04/26 11:02:42;;;;;;;3.90;0.70;;;;;;;;;;5098437;28;20020;-72
2022/04/26 11:05:11;;;;;;;2.88;0.68;;;;;;;;;;5097076;28;20446;-73
2022/04/26 11:07:39;;;;;;;2.97;0.90;;;;;;;;;;5094936;28;20020;-73
2022/04/26 11:10:07;;;;;;;3.17;0.85;;;;;;;;;;5095009;28;20028;-72
2022/04/26 11:12:36;;;;;;;2.40;0.70;;;;;;;;;;5093771;28;20107;-72
2022/04/26 11:15:10;;;;;;;1.90;0.73;;;;;;;;;;5094818;28;20032;-72
2022/04/26 11:17:38;;;;;;;4.28;1.08;;;;;;;;;;5093497;28;20020;-72
2022/04/26 11:20:07;;;;;;;3.40;0.90;;;;;;;;;;5094098;28;20024;-72
2022/04/26 11:22:43;;;;;;;3.22;0.73;;;;;;;;;;5095047;28;20063;-72
2022/04/26 11:28:00;;;;;;;4.55;0.85;;;;;;;;;;5095189;28;20123;-72
2022/04/26 11:30:29;;;;;;;3.25;0.80;;;;;;;;;;5093540;28;20024;-71
2022/04/26 11:33:03;;;;;;;4.60;0.90;;;;;;;;;;5094898;28;20555;-71
2022/04/26 11:35:31;;;;;;;3.85;0.80;;;;;;;;;;5094709;28;20024;-72
2022/04/26 11:37:59;;;;;;;1.58;0.70;;;;;;;;;;5093353;28;20410;-72
2022/04/26 11:40:30;;;;;;;2.30;0.80;;;;;;;;;;5094607;28;20020;-71
2022/04/26 11:42:58;;;;;;;2.42;0.85;;;;;;;;;;5094592;28;20031;-72
2022/04/26 11:45:30;;;;;;;3.65;1.10;;;;;;;;;;5093143;28;20031;-72
2022/04/26 11:47:57;;;;;;;5.47;1.40;;;;;;;;;;5093032;28;20118;-72
2022/04/26 11:50:28;;;;;;;5.85;1.27;;;;;;;;;;5094445;28;20080;-72
2022/04/26 11:53:04;;;;;;;3.22;1.45;;;;;;;;;;5094493;28;20028;-72
2022/04/26 11:55:33;;;;;;;5.85;1.88;;;;;;;;;;5094362;28;20102;-72
2022/04/26 11:58:26;;;;;;;4.57;1.77;;;;;;;;;;5094331;28;20031;-72
2022/04/26 12:01:01;;;;;;;4.22;1.75;;;;;;;;;;5055731;28;20036;-73
2022/04/26 12:03:32;;;;;;;5.82;1.75;;;;;;;;;;5094202;28;20024;-72
2022/04/26 12:06:03;;;;;;;3.05;1.10;;;;;;;;;;5094180;28;20028;-72
2022/04/26 12:08:35;;;;;;;4.32;1.23;;;;;;;;;;5092792;28;20031;-73
2022/04/26 12:11:21;;;;;;;1.67;1.10;;;;;;;;;;5092772;28;20020;-73
2022/04/26 12:14:07;;;;;;;3.72;1.20;;;;;;;;;;5092549;28;20020;-73
2022/04/26 12:16:38;;;;;;;2.90;1.50;;;;;;;;;;5093969;28;20023;-72
2022/04/26 12:19:05;;;;;;;3.28;1.30;;;;;;;;;;5092847;28;20506;-72
2022/04/26 12:21:46;;;;;;;3.97;1.33;;;;;;;;;;5092593;28;20055;-72
2022/04/26 12:24:23;;;;;;;3.33;1.33;;;;;;;;;;5093830;28;20043;-72
2022/04/26 12:26:51;;;;;;;3.83;1.00;;;;;;;;;;5092931;28;20024;-73
2022/04/26 12:29:19;;;;;;;3.83;1.30;;;;;;;;;;5093694;28;20373;-73
2022/04/26 12:31:47;;;;;;;3.92;1.10;;;;;;;;;;5093722;28;20032;-72
2022/04/26 12:34:19;;;;;;;2.65;0.93;;;;;;;;;;5093577;28;20030;-72
2022/04/26 12:36:53;;;;;;;5.75;1.30;;;;;;;;;;5092342;28;20020;-72
2022/04/26 12:39:21;;;;;;;2.65;1.25;;;;;;;;;;5093544;28;20023;-72
2022/04/26 12:41:52;;;;;;;2.95;1.40;;;;;;;;;;5093418;28;20388;-74
2022/04/26 12:44:20;;;;;;;4.43;1.50;;;;;;;;;;5093521;28;20457;-74
2022/04/26 12:50:27;;;;;;;3.55;1.20;;;;;;;;;;5093461;28;20038;-73
2022/04/26 12:52:34;;;;;;;3.97;1.55;;;;;;;;;;5073548;28;20054;-73
2022/04/26 12:55:01;;;;;;;4.82;1.88;;;;;;;;;;5091814;28;20111;-72
2022/04/26 12:57:28;;;;;;;5.28;1.83;;;;;;;;;;5093225;28;20024;-74
2022/04/26 12:59:55;;;;;;;2.08;1.30;;;;;;;;;;5093164;28;20095;-73
2022/04/26 13:02:22;;;;;;;3.63;1.65;;;;;;;;;;5093229;28;20043;-73
2022/04/26 13:04:50;;;;;;;2.70;1.67;;;;;;;;;;5091706;28;20024;-73
2022/04/26 13:07:17;;;;;;;4.50;1.52;;;;;;;;;;5093084;28;20408;-74
2022/04/26 13:09:44;;;;;;;4.93;1.50;;;;;;;;;;5091702;28;20496;-73
2022/04/26 13:12:11;;;;;;;2.72;1.60;;;;;;;;;;5092852;28;20024;-73
2022/04/26 13:14:38;;;;;;;2.60;1.40;;;;;;;;;;5091578;28;20028;-73
2022/04/26 13:17:07;;;;;;;4.22;1.27;;;;;;;;;;5091596;28;20019;-73
2022/04/26 13:19:34;;;;;;;5.10;1.50;;;;;;;;;;5091488;28;20055;-73
2022/04/26 13:22:01;;;;;;;3.13;1.63;;;;;;;;;;5091429;28;20028;-74
2022/04/26 13:24:30;;;;;;;4.22;1.75;;;;;;;;;;5093120;28;20495;-72
2022/04/26 13:26:57;;;;;;;3.25;1.70;;;;;;;;;;5091501;28;20349;-73
2022/04/26 13:29:24;;;;;;;3.90;1.70;;;;;;;;;;5092713;28;20020;-72
2022/04/26 13:31:52;;;;;;;3.17;1.30;;;;;;;;;;5090854;28;20510;-74
2022/04/26 13:34:19;;;;;;;4.05;1.50;;;;;;;;;;5091296;28;20024;-71
2022/04/26 13:36:47;;;;;;;4.40;1.77;;;;;;;;;;5091453;28;20423;-71
2022/04/26 13:39:14;;;;;;;4.15;1.30;;;;;;;;;;5092577;28;20026;-73
2022/04/26 13:41:41;;;;;;;2.28;1.20;;;;;;;;;;5091548;28;20494;-71
2022/04/26 13:44:08;;;;;;;3.20;1.00;;;;;;;;;;5092850;28;20034;-71
2022/04/26 13:46:36;;;;;;;3.65;1.52;;;;;;;;;;5092561;28;20024;-72
2022/04/26 13:49:03;;;;;;;3.92;1.48;;;;;;;;;;5090964;28;20056;-71
2022/04/26 13:51:30;;;;;;;4.95;1.65;;;;;;;;;;5092455;28;20093;-72
2022/04/26 13:53:58;;;;;;;4.18;1.50;;;;;;;;;;5091207;28;20028;-73
2022/04/26 13:56:25;;;;;;;4.72;1.40;;;;;;;;;;5091170;28;20063;-72
2022/04/26 13:58:53;;;;;;;4.30;1.60;;;;;;;;;;5091063;28;20389;-72
2022/04/26 14:01:20;;;;;;;3.30;1.17;;;;;;;;;;5092194;28;20016;-73
2022/04/26 14:03:47;;;;;;;3.15;1.30;;;;;;;;;;5092284;28;20035;-73
2022/04/26 14:06:18;;;;;;;3.13;1.40;;;;;;;;;;5091202;28;20024;-73
2022/04/26 14:08:48;;;;;;;2.50;1.10;;;;;;;;;;5091408;28;20039;-73
2022/04/26 14:11:16;;;;;;;1.70;1.00;;;;;;;;;;5098478;28;20467;-71
2022/04/26 14:21:59;;;;;;;4.50;1.73;;;;;;;;;;5095832;28;20035;-77
2022/04/26 14:24:26;;;;;;;2.17;1.42;;;;;;;;;;5097069;28;20087;-78
2022/04/26 14:26:53;;;;;;;3.53;1.50;;;;;;;;;;5094721;28;20016;-77
2022/04/26 14:29:21;;;;;;;2.53;1.75;;;;;;;;;;5095708;28;20451;-76
2022/04/26 14:31:49;;;;;;;3.55;1.40;;;;;;;;;;5103251;28;20028;-78
2022/04/26 14:34:16;;;;;;;3.15;1.30;;;;;;;;;;5100267;28;20054;-76
2022/04/26 14:36:43;;;;;;;3.22;1.50;;;;;;;;;;5099608;28;20051;-75
2022/04/26 14:39:12;;;;;;;3.03;1.38;;;;;;;;;;5101035;28;20028;-76
2022/04/26 14:41:40;;;;;;;1.90;1.33;;;;;;;;;;5101053;28;20020;-76
2022/04/26 14:44:07;;;;;;;2.53;1.52;;;;;;;;;;5103677;28;20020;-77
2022/04/26 14:46:35;;;;;;;3.67;1.80;;;;;;;;;;5106542;28;20077;-76
2022/04/26 14:49:02;;;;;;;3.20;1.60;;;;;;;;;;5100885;28;20126;-76
2022/04/26 14:51:29;;;;;;;3.55;1.67;;;;;;;;;;5105839;28;20405;-76
2022/04/26 14:53:57;;;;;;;2.13;1.63;;;;;;;;;;5106804;28;20035;-76
2022/04/26 14:56:24;;;;;;;4.05;1.73;;;;;;;;;;5108797;28;20543;-78
2022/04/26 14:58:51;;;;;;;3.47;1.77;;;;;;;;;;5105975;28;20031;-78
2022/04/26 15:01:18;;;;;;;3.72;1.85;;;;;;;;;;5106047;28;20024;-78
2022/04/26 15:03:46;;;;;;;4.68;1.50;;;;;;;;;;5101934;28;20476;-78
2022/04/26 15:06:13;;;;;;;3.25;1.55;;;;;;;;;;5096916;28;20503;-77
2022/04/26 15:11:25;;;;;;;2.58;1.50;;;;;;;;;;5107713;28;20089;-78
2022/04/26 15:16:38;;;;;;;3.22;1.45;;;;;;;;;;5105824;28;20032;-78
2022/04/26 15:19:12;;;;;;;3.47;1.20;;;;;;;;;;5105314;28;20040;-77
2022/04/26 15:21:42;;;;;;;4.18;1.48;;;;;;;;;;5108292;28;20072;-78
2022/04/26 15:24:09;;;;;;;3.10;1.80;;;;;;;;;;5105134;28;20047;-78
2022/04/26 15:26:36;;;;;;;3.33;1.48;;;;;;;;;;5103535;28;20028;-79
2022/04/26 15:29:07;;;;;;;3.25;1.58;;;;;;;;;;5104237;28;20165;-79
2022/04/26 15:31:34;;;;;;;3.45;1.83;;;;;;;;;;5103830;28;20085;-78
2022/04/26 15:34:02;;;;;;;5.30;1.88;;;;;;;;;;5105992;28;20035;-78
2022/04/26 15:36:29;;;;;;;3.35;1.75;;;;;;;;;;5105558;28;20087;-77
2022/04/26 15:38:59;;;;;;;4.22;1.75;;;;;;;;;;5107265;28;20016;-77
2022/04/26 15:41:26;;;;;;;3.92;1.77;;;;;;;;;;5107010;28;20024;-77
2022/04/26 15:43:54;;;;;;;3.45;1.48;;;;;;;;;;5106747;28;20423;-78
2022/04/26 15:46:21;;;;;;;4.07;2.25;;;;;;;;;;5106428;28;20488;-79
2022/04/26 15:48:48;;;;;;;5.60;2.35;;;;;;;;;;5105581;28;20043;-78
2022/04/26 15:51:16;;;;;;;5.22;2.22;;;;;;;;;;5105527;28;20084;-78
2022/04/26 15:53:46;;;;;;;4.55;2.90;;;;;;;;;;5104523;28;20039;-78
2022/04/26 15:56:14;;;;;;;4.68;2.80;;;;;;;;;;5104623;28;20023;-78
2022/04/26 15:58:41;;;;;;;4.15;2.50;;;;;;;;;;5104297;28;20087;-80
2022/04/26 16:01:09;;;;;;;3.80;2.83;;;;;;;;;;5099242;28;20532;-78
2022/04/26 16:03:38;;;;;;;7.47;3.60;;;;;;;;;;5100325;28;20042;-78
2022/04/26 16:06:05;;;;;;;5.43;3.10;;;;;;;;;;5100570;28;20028;-77
2022/04/26 16:08:35;;;;;;;4.25;3.70;;;;;;;;;;5100942;28;20023;-77
2022/04/26 16:22:05;;;;;;;6.60;3.40;;;;;;;;;;5103106;28;20051;-80
2022/04/26 16:24:38;;;;;;;5.65;3.20;;;;;;;;;;5103455;28;20422;-80
2022/04/26 16:27:06;;;;;;;5.18;3.00;;;;;;;;;;5094673;28;20025;-81
2022/04/26 16:29:33;;;;;;;4.85;3.22;;;;;;;;;;5096948;28;20438;-81
2022/04/26 16:32:01;;;;;;;3.63;2.78;;;;;;;;;;5093897;28;20056;-79
2022/04/26 16:34:29;;;;;;;5.70;2.97;;;;;;;;;;5095622;28;20027;-80
2022/04/26 16:36:56;;;;;;;3.72;2.97;;;;;;;;;;5093685;28;20070;-79
2022/04/26 16:39:23;;;;;;;7.15;3.00;;;;;;;;;;5094876;28;20016;-79
2022/04/26 16:41:51;;;;;;;4.10;3.70;;;;;;;;;;5093856;28;20020;-79
2022/04/26 16:44:20;;;;;;;4.95;3.50;;;;;;;;;;5093714;28;20035;-78
2022/04/26 16:46:47;;;;;;;5.75;3.75;;;;;;;;;;5095916;28;20111;-78
2022/04/26 16:49:14;;;;;;;4.78;3.47;;;;;;;;;;5092858;28;20070;-78
2022/04/26 16:51:42;;;;;;;7.13;3.75;;;;;;;;;;5092554;28;20442;-77
2022/04/26 16:54:10;;;;;;;8.07;4.38;;;;;;;;;;5092080;28;20511;-76
2022/04/26 16:56:37;;;;;;;6.18;4.25;;;;;;;;;;5092684;28;20047;-78
2022/04/26 16:59:04;;;;;;;8.05;4.82;;;;;;;;;;5092090;28;20020;-78
2022/04/26 17:01:31;;;;;;;5.90;4.72;;;;;;;;;;5093392;28;20070;-74
2022/04/26 17:03:58;;;;;;;6.93;4.68;;;;;;;;;;5093190;28;20476;-77
2022/04/26 17:06:26;;;;;;;6.78;4.55;;;;;;;;;;5091245;28;20090;-77
2022/04/26 17:08:53;;;;;;;6.82;4.85;;;;;;;;;;5093174;28;20027;-75
2022/04/26 17:14:06;;;;;;;4.75;3.30;;;;;;;;;;5093036;28;20035;-76
2022/04/26 17:16:33;;;;;;;6.60;4.82;;;;;;;;;;5091762;28;20032;-77
2022/04/26 17:19:00;;;;;;;4.97;4.43;;;;;;;;;;5091766;28;20030;-76
2022/04/26 17:21:28;;;;;;;4.75;4.05;;;;;;;;;;5091713;28;20020;-78
2022/04/26 17:23:55;;;;;;;6.10;4.97;;;;;;;;;;5092852;28;20032;-76
2022/04/26 17:26:22;;;;;;;5.43;4.47;;;;;;;;;;5092940;28;20031;-76
2022/04/26 17:28:49;;;;;;;7.80;4.50;;;;;;;;;;5092870;28;20503;-76
2022/04/26 17:31:17;;;;;;;6.78;4.70;;;;;;;;;;5092870;28;20028;-77
2022/04/26 17:33:46;;;;;;;6.07;4.50;;;;;;;;;;5092785;28;20388;-76
2022/04/26 17:36:13;;;;;;;5.43;4.20;;;;;;;;;;5091435;28;20020;-76
2022/04/26 17:38:40;;;;;;;4.75;4.15;;;;;;;;;;5092731;28;20234;-77
2022/04/26 17:41:07;;;;;;;5.18;4.68;;;;;;;;;;5092708;28;20073;-76
2022/04/26 17:43:36;;;;;;;5.38;4.50;;;;;;;;;;5092701;28;20247;-77
2022/04/26 17:46:11;;;;;;;5.88;4.88;;;;;;;;;;5092692;28;20028;-77
2022/04/26 17:48:38;;;;;;;5.20;4.60;;;;;;;;;;5091174;28;20047;-76
2022/04/26 17:51:05;;;;;;;5.18;4.68;;;;;;;;;;5092617;28;20473;-76
2022/04/26 17:56:30;;;;;;;5.72;4.88;;;;;;;;;;5092562;28;20519;-76
2022/04/26 17:58:58;;;;;;;6.43;5.32;;;;;;;;;;5091256;28;20026;-76
2022/04/26 18:01:25;;;;;;;5.45;4.25;;;;;;;;;;5091162;28;20020;-76
2022/04/26 18:03:52;;;;;;;6.50;4.38;;;;;;;;;;5091063;28;20028;-76
2022/04/26 18:06:20;;;;;;;6.05;5.05;;;;;;;;;;5091062;28;20112;-76
2022/04/26 18:08:47;;;;;;;5.32;4.05;;;;;;;;;;5092392;28;20052;-76
2022/04/26 18:11:14;;;;;;;4.90;4.40;;;;;;;;;;5092384;28;20035;-76
2022/04/26 18:13:42;;;;;;;6.65;5.00;;;;;;;;;;5092342;28;20032;-76
2022/04/26 18:16:09;;;;;;;4.72;4.00;;;;;;;;;;5091130;28;20024;-77
2022/04/26 18:18:36;;;;;;;6.75;4.35;;;;;;;;;;5096542;28;20473;-76
2022/04/26 18:21:04;;;;;;;5.68;4.90;;;;;;;;;;5095065;28;20028;-78
2022/04/26 18:23:32;;;;;;;5.20;4.35;;;;;;;;;;5096335;28;20020;-76
2022/04/26 18:26:11;;;;;;;5.18;4.18;;;;;;;;;;5096274;28;20107;-75
2022/04/26 18:28:42;;;;;;;6.35;4.28;;;;;;;;;;5095110;28;20023;-75
2022/04/26 18:31:10;;;;;;;5.43;4.20;;;;;;;;;;5096249;28;20027;-76
2022/04/26 18:33:38;;;;;;;5.20;3.80;;;;;;;;;;5096171;28;20444;-76
2022/04/26 18:36:07;;;;;;;5.40;3.92;;;;;;;;;;5096101;28;20035;-76
2022/04/26 18:38:35;;;;;;;5.90;4.10;;;;;;;;;;5094783;28;20395;-76
2022/04/26 18:41:03;;;;;;;6.05;4.50;;;;;;;;;;5096040;28;20506;-75
2022/04/26 18:43:30;;;;;;;5.88;4.85;;;;;;;;;;5094723;28;20434;-76
2022/04/26 18:45:58;;;;;;;7.97;4.88;;;;;;;;;;5095990;28;20472;-76
2022/04/26 18:48:26;;;;;;;6.15;4.50;;;;;;;;;;5094315;28;20036;-76
2022/04/26 18:50:53;;;;;;;5.25;4.18;;;;;;;;;;5094510;28;20028;-76
2022/04/26 18:53:20;;;;;;;5.65;4.28;;;;;;;;;;5094462;28;20027;-75
2022/04/26 18:55:49;;;;;;;7.80;4.57;;;;;;;;;;5095739;28;20035;-76
2022/04/26 18:58:18;;;;;;;6.15;4.40;;;;;;;;;;5094374;28;20069;-76
2022/04/26 19:00:46;;;;;;;5.47;4.60;;;;;;;;;;5095693;28;20024;-76
2022/04/26 19:03:13;;;;;;;6.43;4.28;;;;;;;;;;5095569;28;20020;-76
2022/04/26 19:05:40;;;;;;;8.43;4.03;;;;;;;;;;5095442;28;20056;-76
2022/04/26 19:08:07;;;;;;;6.80;3.88;;;;;;;;;;5094068;28;20028;-76
2022/04/26 19:13:20;;;;;;;7.63;3.60;;;;;;;;;;5095412;28;20077;-76
2022/04/26 19:15:48;;;;;;;7.18;4.40;;;;;;;;;;5095370;28;20017;-76
2022/04/26 19:18:19;;;;;;;4.45;4.03;;;;;;;;;;5095360;28;20027;-76